sensor_id;sensor_type;location;lat;lon;timestamp;P1;durP1;ratioP1;P2;durP2;ratioP2
64351;SDS011;50680;52.626;-8.668;2023-10-09T00:02:08;72.70;;;11.25;;
64351;SDS011;50680;52.626;-8.668;2023-10-09T00:04:37;35.90;;;10.82;;
64351;SDS011;50680;52.626;-8.668;2023-10-09T00:07:09;39.80;;;9.75;;
64351;SDS011;50680;52.626;-8.668;2023-10-09T00:09:37;16.92;;;9.82;;
64351;SDS011;50680;52.626;-8.668;2023-10-09T00:12:17;11.85;;;9.32;;
64351;SDS011;50680;52.626;-8.668;2023-10-09T00:14:50;13.75;;;10.00;;
64351;SDS011;50680;52.626;-8.668;2023-10-09T00:17:22;16.08;;;10.55;;
64351;SDS011;50680;52.626;-8.668;2023-10-09T00:19:50;14.00;;;9.68;;
64351;SDS011;50680;52.626;-8.668;2023-10-09T00:22:18;16.30;;;10.18;;
64351;SDS011;50680;52.626;-8.668;2023-10-09T00:24:52;28.45;;;12.32;;
64351;SDS011;50680;52.626;-8.668;2023-10-09T00:27:39;32.95;;;10.52;;
64351;SDS011;50680;52.626;-8.668;2023-10-09T00:30:13;13.85;;;10.23;;
64351;SDS011;50680;52.626;-8.668;2023-10-09T00:32:45;25.05;;;9.95;;
64351;SDS011;50680;52.626;-8.668;2023-10-09T00:35:26;15.90;;;11.15;;
64351;SDS011;50680;52.626;-8.668;2023-10-09T00:38:04;17.75;;;10.60;;
64351;SDS011;50680;52.626;-8.668;2023-10-09T00:40:50;19.02;;;11.95;;
64351;SDS011;50680;52.626;-8.668;2023-10-09T00:43:30;24.92;;;13.43;;
64351;SDS011;50680;52.626;-8.668;2023-10-09T00:45:59;30.50;;;14.07;;
64351;SDS011;50680;52.626;-8.668;2023-10-09T00:48:38;43.47;;;15.38;;
64351;SDS011;50680;52.626;-8.668;2023-10-09T00:51:08;21.10;;;11.95;;
64351;SDS011;50680;52.626;-8.668;2023-10-09T00:53:48;29.80;;;13.52;;
64351;SDS011;50680;52.626;-8.668;2023-10-09T00:56:18;33.90;;;14.27;;
64351;SDS011;50680;52.626;-8.668;2023-10-09T00:58:52;44.53;;;15.30;;
64351;SDS011;50680;52.626;-8.668;2023-10-09T01:01:33;67.88;;;15.70;;
64351;SDS011;50680;52.626;-8.668;2023-10-09T01:04:07;49.00;;;16.08;;
64351;SDS011;50680;52.626;-8.668;2023-10-09T01:06:44;78.90;;;17.02;;
64351;SDS011;50680;52.626;-8.668;2023-10-09T01:09:30;38.88;;;14.68;;
64351;SDS011;50680;52.626;-8.668;2023-10-09T01:12:04;53.35;;;15.93;;
64351;SDS011;50680;52.626;-8.668;2023-10-09T01:14:32;49.40;;;14.98;;
64351;SDS011;50680;52.626;-8.668;2023-10-09T01:17:03;82.72;;;16.08;;
64351;SDS011;50680;52.626;-8.668;2023-10-09T01:19:51;56.05;;;15.18;;
64351;SDS011;50680;52.626;-8.668;2023-10-09T01:22:22;77.82;;;16.23;;
64351;SDS011;50680;52.626;-8.668;2023-10-09T01:24:49;89.00;;;19.83;;
64351;SDS011;50680;52.626;-8.668;2023-10-09T01:27:17;53.42;;;17.80;;
64351;SDS011;50680;52.626;-8.668;2023-10-09T01:29:44;37.80;;;17.50;;
64351;SDS011;50680;52.626;-8.668;2023-10-09T01:32:14;93.53;;;19.15;;
64351;SDS011;50680;52.626;-8.668;2023-10-09T01:34:46;46.08;;;16.27;;
64351;SDS011;50680;52.626;-8.668;2023-10-09T01:37:17;56.70;;;19.58;;
64351;SDS011;50680;52.626;-8.668;2023-10-09T01:39:47;141.15;;;20.55;;
64351;SDS011;50680;52.626;-8.668;2023-10-09T01:42:15;91.03;;;18.17;;
64351;SDS011;50680;52.626;-8.668;2023-10-09T01:44:57;47.38;;;19.58;;
64351;SDS011;50680;52.626;-8.668;2023-10-09T01:47:53;39.97;;;16.25;;
64351;SDS011;50680;52.626;-8.668;2023-10-09T01:50:21;74.95;;;18.23;;
64351;SDS011;50680;52.626;-8.668;2023-10-09T01:52:51;52.90;;;18.80;;
64351;SDS011;50680;52.626;-8.668;2023-10-09T01:55:18;59.47;;;19.42;;
64351;SDS011;50680;52.626;-8.668;2023-10-09T01:57:56;71.03;;;20.48;;
64351;SDS011;50680;52.626;-8.668;2023-10-09T02:00:32;96.00;;;19.23;;
64351;SDS011;50680;52.626;-8.668;2023-10-09T02:03:09;107.22;;;20.92;;
64351;SDS011;50680;52.626;-8.668;2023-10-09T02:05:50;190.27;;;24.35;;
64351;SDS011;50680;52.626;-8.668;2023-10-09T02:08:17;146.63;;;22.05;;
64351;SDS011;50680;52.626;-8.668;2023-10-09T02:10:48;147.13;;;25.97;;
64351;SDS011;50680;52.626;-8.668;2023-10-09T02:13:16;181.23;;;25.45;;
64351;SDS011;50680;52.626;-8.668;2023-10-09T02:15:43;234.90;;;26.83;;
64351;SDS011;50680;52.626;-8.668;2023-10-09T02:18:19;195.40;;;28.35;;
64351;SDS011;50680;52.626;-8.668;2023-10-09T02:20:51;140.07;;;24.27;;
64351;SDS011;50680;52.626;-8.668;2023-10-09T02:23:28;120.97;;;24.25;;
64351;SDS011;50680;52.626;-8.668;2023-10-09T02:26:13;294.60;;;28.70;;
64351;SDS011;50680;52.626;-8.668;2023-10-09T02:29:04;130.52;;;26.83;;
64351;SDS011;50680;52.626;-8.668;2023-10-09T02:31:41;237.50;;;29.55;;
64351;SDS011;50680;52.626;-8.668;2023-10-09T02:34:13;345.52;;;36.20;;
64351;SDS011;50680;52.626;-8.668;2023-10-09T02:36:42;143.02;;;29.25;;
64351;SDS011;50680;52.626;-8.668;2023-10-09T02:39:15;193.23;;;25.23;;
64351;SDS011;50680;52.626;-8.668;2023-10-09T02:41:56;131.00;;;22.55;;
64351;SDS011;50680;52.626;-8.668;2023-10-09T02:44:55;182.40;;;27.65;;
64351;SDS011;50680;52.626;-8.668;2023-10-09T02:47:26;214.85;;;25.42;;
64351;SDS011;50680;52.626;-8.668;2023-10-09T02:50:05;203.20;;;23.75;;
64351;SDS011;50680;52.626;-8.668;2023-10-09T02:52:38;206.50;;;25.35;;
64351;SDS011;50680;52.626;-8.668;2023-10-09T02:55:13;176.43;;;24.33;;
64351;SDS011;50680;52.626;-8.668;2023-10-09T02:57:50;209.27;;;26.58;;
64351;SDS011;50680;52.626;-8.668;2023-10-09T03:00:31;450.30;;;37.50;;
64351;SDS011;50680;52.626;-8.668;2023-10-09T03:02:59;286.17;;;32.78;;
64351;SDS011;50680;52.626;-8.668;2023-10-09T03:05:26;348.80;;;35.22;;
64351;SDS011;50680;52.626;-8.668;2023-10-09T03:07:56;384.15;;;36.17;;
64351;SDS011;50680;52.626;-8.668;2023-10-09T03:10:23;359.13;;;38.55;;
64351;SDS011;50680;52.626;-8.668;2023-10-09T03:12:52;239.82;;;29.63;;
64351;SDS011;50680;52.626;-8.668;2023-10-09T03:15:20;246.73;;;29.85;;
64351;SDS011;50680;52.626;-8.668;2023-10-09T03:17:47;340.02;;;34.50;;
64351;SDS011;50680;52.626;-8.668;2023-10-09T03:20:15;119.05;;;23.40;;
64351;SDS011;50680;52.626;-8.668;2023-10-09T03:22:44;297.73;;;32.53;;
64351;SDS011;50680;52.626;-8.668;2023-10-09T03:25:14;164.07;;;26.83;;
64351;SDS011;50680;52.626;-8.668;2023-10-09T03:27:43;172.77;;;27.70;;
64351;SDS011;50680;52.626;-8.668;2023-10-09T03:30:14;141.23;;;26.45;;
64351;SDS011;50680;52.626;-8.668;2023-10-09T03:32:51;138.68;;;25.73;;
64351;SDS011;50680;52.626;-8.668;2023-10-09T03:35:20;181.85;;;27.00;;
64351;SDS011;50680;52.626;-8.668;2023-10-09T03:37:52;267.83;;;34.95;;
64351;SDS011;50680;52.626;-8.668;2023-10-09T03:40:26;188.52;;;30.70;;
64351;SDS011;50680;52.626;-8.668;2023-10-09T03:42:53;221.25;;;25.77;;
64351;SDS011;50680;52.626;-8.668;2023-10-09T03:45:20;182.45;;;27.20;;
64351;SDS011;50680;52.626;-8.668;2023-10-09T03:47:55;187.25;;;23.98;;
64351;SDS011;50680;52.626;-8.668;2023-10-09T03:50:35;225.85;;;27.70;;
64351;SDS011;50680;52.626;-8.668;2023-10-09T03:53:05;270.42;;;30.48;;
64351;SDS011;50680;52.626;-8.668;2023-10-09T03:58:01;186.95;;;26.98;;
64351;SDS011;50680;52.626;-8.668;2023-10-09T04:00:29;304.63;;;33.97;;
64351;SDS011;50680;52.626;-8.668;2023-10-09T04:02:56;270.95;;;30.50;;
64351;SDS011;50680;52.626;-8.668;2023-10-09T04:05:25;222.07;;;31.65;;
64351;SDS011;50680;52.626;-8.668;2023-10-09T04:07:54;282.70;;;32.67;;
64351;SDS011;50680;52.626;-8.668;2023-10-09T04:10:23;211.77;;;28.92;;
64351;SDS011;50680;52.626;-8.668;2023-10-09T04:12:59;358.25;;;35.92;;
64351;SDS011;50680;52.626;-8.668;2023-10-09T04:15:29;293.63;;;31.55;;
64351;SDS011;50680;52.626;-8.668;2023-10-09T04:17:57;215.23;;;28.33;;
64351;SDS011;50680;52.626;-8.668;2023-10-09T04:20:24;360.13;;;34.83;;
64351;SDS011;50680;52.626;-8.668;2023-10-09T04:22:51;268.92;;;31.77;;
64351;SDS011;50680;52.626;-8.668;2023-10-09T04:25:19;433.25;;;37.72;;
64351;SDS011;50680;52.626;-8.668;2023-10-09T04:27:57;227.68;;;25.70;;
64351;SDS011;50680;52.626;-8.668;2023-10-09T04:30:43;220.93;;;28.20;;
64351;SDS011;50680;52.626;-8.668;2023-10-09T04:33:20;265.83;;;31.13;;
64351;SDS011;50680;52.626;-8.668;2023-10-09T04:36:18;233.95;;;30.20;;
64351;SDS011;50680;52.626;-8.668;2023-10-09T04:38:45;207.25;;;25.67;;
64351;SDS011;50680;52.626;-8.668;2023-10-09T04:41:42;274.67;;;26.85;;
64351;SDS011;50680;52.626;-8.668;2023-10-09T04:44:10;255.95;;;28.10;;
64351;SDS011;50680;52.626;-8.668;2023-10-09T04:46:49;69.63;;;19.17;;
64351;SDS011;50680;52.626;-8.668;2023-10-09T04:49:40;140.75;;;23.10;;
64351;SDS011;50680;52.626;-8.668;2023-10-09T04:52:28;90.00;;;21.88;;
64351;SDS011;50680;52.626;-8.668;2023-10-09T04:54:56;85.68;;;18.95;;
64351;SDS011;50680;52.626;-8.668;2023-10-09T05:00:15;84.68;;;19.65;;
64351;SDS011;50680;52.626;-8.668;2023-10-09T05:02:49;99.25;;;20.55;;
64351;SDS011;50680;52.626;-8.668;2023-10-09T05:05:25;97.18;;;20.77;;
64351;SDS011;50680;52.626;-8.668;2023-10-09T05:08:11;79.55;;;19.80;;
64351;SDS011;50680;52.626;-8.668;2023-10-09T05:10:49;133.75;;;21.48;;
64351;SDS011;50680;52.626;-8.668;2023-10-09T05:13:26;106.75;;;20.13;;
64351;SDS011;50680;52.626;-8.668;2023-10-09T05:18:45;178.43;;;23.00;;
64351;SDS011;50680;52.626;-8.668;2023-10-09T05:21:23;248.85;;;22.90;;
64351;SDS011;50680;52.626;-8.668;2023-10-09T05:23:57;396.55;;;27.52;;
64351;SDS011;50680;52.626;-8.668;2023-10-09T05:26:43;420.70;;;31.73;;
64351;SDS011;50680;52.626;-8.668;2023-10-09T05:29:18;278.42;;;26.50;;
64351;SDS011;50680;52.626;-8.668;2023-10-09T05:31:51;431.58;;;31.50;;
64351;SDS011;50680;52.626;-8.668;2023-10-09T05:34:36;493.80;;;37.90;;
64351;SDS011;50680;52.626;-8.668;2023-10-09T05:37:24;389.48;;;28.88;;
64351;SDS011;50680;52.626;-8.668;2023-10-09T05:39:52;382.60;;;27.25;;
64351;SDS011;50680;52.626;-8.668;2023-10-09T05:42:35;238.95;;;23.30;;
64351;SDS011;50680;52.626;-8.668;2023-10-09T05:45:09;113.33;;;17.90;;
64351;SDS011;50680;52.626;-8.668;2023-10-09T05:47:55;264.05;;;29.15;;
64351;SDS011;50680;52.626;-8.668;2023-10-09T05:50:40;126.15;;;20.10;;
64351;SDS011;50680;52.626;-8.668;2023-10-09T05:53:22;194.10;;;22.33;;
64351;SDS011;50680;52.626;-8.668;2023-10-09T05:56:21;140.48;;;19.15;;
64351;SDS011;50680;52.626;-8.668;2023-10-09T05:59:24;125.90;;;19.65;;
64351;SDS011;50680;52.626;-8.668;2023-10-09T06:02:09;108.15;;;17.40;;
64351;SDS011;50680;52.626;-8.668;2023-10-09T06:04:55;118.07;;;18.23;;
64351;SDS011;50680;52.626;-8.668;2023-10-09T06:07:22;216.65;;;22.73;;
64351;SDS011;50680;52.626;-8.668;2023-10-09T06:09:51;40.05;;;15.07;;
64351;SDS011;50680;52.626;-8.668;2023-10-09T06:12:24;172.32;;;21.33;;
64351;SDS011;50680;52.626;-8.668;2023-10-09T06:15:00;317.15;;;24.05;;
64351;SDS011;50680;52.626;-8.668;2023-10-09T06:17:51;148.43;;;20.10;;
64351;SDS011;50680;52.626;-8.668;2023-10-09T06:20:18;83.80;;;18.15;;
64351;SDS011;50680;52.626;-8.668;2023-10-09T06:23:03;103.05;;;18.98;;
64351;SDS011;50680;52.626;-8.668;2023-10-09T06:25:43;180.25;;;22.08;;
64351;SDS011;50680;52.626;-8.668;2023-10-09T06:28:18;122.28;;;18.50;;
64351;SDS011;50680;52.626;-8.668;2023-10-09T06:30:59;102.75;;;19.20;;
64351;SDS011;50680;52.626;-8.668;2023-10-09T06:33:46;291.73;;;23.17;;
64351;SDS011;50680;52.626;-8.668;2023-10-09T06:36:42;308.40;;;22.20;;
64351;SDS011;50680;52.626;-8.668;2023-10-09T06:39:20;204.20;;;22.40;;
64351;SDS011;50680;52.626;-8.668;2023-10-09T06:42:05;310.80;;;23.77;;
64351;SDS011;50680;52.626;-8.668;2023-10-09T06:44:36;181.15;;;19.48;;
64351;SDS011;50680;52.626;-8.668;2023-10-09T06:47:18;228.95;;;20.75;;
64351;SDS011;50680;52.626;-8.668;2023-10-09T06:49:50;334.95;;;20.75;;
64351;SDS011;50680;52.626;-8.668;2023-10-09T06:52:36;329.40;;;21.52;;
64351;SDS011;50680;52.626;-8.668;2023-10-09T06:55:21;300.75;;;20.45;;
64351;SDS011;50680;52.626;-8.668;2023-10-09T06:58:02;251.63;;;16.98;;
64351;SDS011;50680;52.626;-8.668;2023-10-09T07:00:39;327.65;;;18.90;;
64351;SDS011;50680;52.626;-8.668;2023-10-09T07:03:21;196.93;;;17.70;;
64351;SDS011;50680;52.626;-8.668;2023-10-09T07:06:06;88.20;;;16.17;;
64351;SDS011;50680;52.626;-8.668;2023-10-09T07:08:51;199.23;;;21.17;;
64351;SDS011;50680;52.626;-8.668;2023-10-09T07:14:10;88.78;;;18.40;;
64351;SDS011;50680;52.626;-8.668;2023-10-09T07:19:28;137.60;;;18.83;;
64351;SDS011;50680;52.626;-8.668;2023-10-09T07:22:12;164.77;;;20.02;;
64351;SDS011;50680;52.626;-8.668;2023-10-09T07:25:02;125.78;;;15.15;;
64351;SDS011;50680;52.626;-8.668;2023-10-09T07:27:41;78.95;;;14.00;;
64351;SDS011;50680;52.626;-8.668;2023-10-09T07:30:12;94.47;;;15.70;;
64351;SDS011;50680;52.626;-8.668;2023-10-09T07:33:06;150.13;;;16.60;;
64351;SDS011;50680;52.626;-8.668;2023-10-09T07:35:38;115.85;;;17.10;;
64351;SDS011;50680;52.626;-8.668;2023-10-09T07:38:17;116.72;;;17.02;;
64351;SDS011;50680;52.626;-8.668;2023-10-09T07:40:55;105.13;;;15.93;;
64351;SDS011;50680;52.626;-8.668;2023-10-09T07:43:42;93.18;;;15.68;;
64351;SDS011;50680;52.626;-8.668;2023-10-09T07:48:57;102.07;;;17.92;;
64351;SDS011;50680;52.626;-8.668;2023-10-09T07:51:27;112.45;;;19.80;;
64351;SDS011;50680;52.626;-8.668;2023-10-09T07:53:58;52.13;;;18.02;;
64351;SDS011;50680;52.626;-8.668;2023-10-09T07:56:36;62.97;;;17.27;;
64351;SDS011;50680;52.626;-8.668;2023-10-09T07:59:13;46.25;;;13.18;;
64351;SDS011;50680;52.626;-8.668;2023-10-09T08:01:46;42.00;;;13.70;;
64351;SDS011;50680;52.626;-8.668;2023-10-09T08:04:29;29.02;;;13.05;;
64351;SDS011;50680;52.626;-8.668;2023-10-09T08:07:15;48.13;;;12.02;;
64351;SDS011;50680;52.626;-8.668;2023-10-09T08:10:07;47.03;;;13.75;;
64351;SDS011;50680;52.626;-8.668;2023-10-09T08:12:41;67.50;;;13.57;;
64351;SDS011;50680;52.626;-8.668;2023-10-09T08:15:25;145.93;;;19.33;;
64351;SDS011;50680;52.626;-8.668;2023-10-09T18:14:45;10.20;;;4.70;;
64351;SDS011;50680;52.626;-8.668;2023-10-09T18:18:25;12.93;;;4.13;;
64351;SDS011;50680;52.626;-8.668;2023-10-09T18:22:10;9.50;;;4.60;;
64351;SDS011;50680;52.626;-8.668;2023-10-09T18:59:42;10.95;;;4.90;;
64351;SDS011;50680;52.626;-8.668;2023-10-09T19:18:22;10.73;;;5.40;;
64351;SDS011;50680;52.626;-8.668;2023-10-09T19:20:51;8.25;;;5.35;;
64351;SDS011;50680;52.626;-8.668;2023-10-09T19:23:19;9.13;;;5.88;;
64351;SDS011;50680;52.626;-8.668;2023-10-09T19:25:46;12.98;;;5.28;;
64351;SDS011;50680;52.626;-8.668;2023-10-09T19:28:15;8.35;;;5.78;;
64351;SDS011;50680;52.626;-8.668;2023-10-09T19:30:42;12.63;;;5.78;;
64351;SDS011;50680;52.626;-8.668;2023-10-09T19:33:10;9.70;;;5.53;;
64351;SDS011;50680;52.626;-8.668;2023-10-09T19:35:38;10.10;;;5.43;;
64351;SDS011;50680;52.626;-8.668;2023-10-09T19:38:07;9.90;;;5.07;;
64351;SDS011;50680;52.626;-8.668;2023-10-09T19:40:34;12.35;;;5.53;;
64351;SDS011;50680;52.626;-8.668;2023-10-09T19:43:01;12.98;;;5.30;;
64351;SDS011;50680;52.626;-8.668;2023-10-09T19:45:31;8.40;;;5.20;;
64351;SDS011;50680;52.626;-8.668;2023-10-09T19:47:57;11.52;;;5.82;;
64351;SDS011;50680;52.626;-8.668;2023-10-09T19:50:24;10.82;;;6.07;;
64351;SDS011;50680;52.626;-8.668;2023-10-09T19:52:52;10.45;;;5.57;;
64351;SDS011;50680;52.626;-8.668;2023-10-09T19:55:19;10.30;;;5.35;;
64351;SDS011;50680;52.626;-8.668;2023-10-09T19:57:50;11.23;;;5.88;;
64351;SDS011;50680;52.626;-8.668;2023-10-09T20:00:18;12.23;;;5.47;;
64351;SDS011;50680;52.626;-8.668;2023-10-09T20:02:49;10.07;;;5.38;;
64351;SDS011;50680;52.626;-8.668;2023-10-09T20:05:20;8.13;;;5.07;;
64351;SDS011;50680;52.626;-8.668;2023-10-09T20:07:49;10.63;;;5.15;;
64351;SDS011;50680;52.626;-8.668;2023-10-09T20:10:16;11.98;;;5.60;;
64351;SDS011;50680;52.626;-8.668;2023-10-09T20:12:45;9.70;;;5.50;;
64351;SDS011;50680;52.626;-8.668;2023-10-09T20:15:12;8.88;;;4.97;;
64351;SDS011;50680;52.626;-8.668;2023-10-09T20:17:40;8.00;;;5.47;;
64351;SDS011;50680;52.626;-8.668;2023-10-09T20:20:10;9.60;;;5.22;;
64351;SDS011;50680;52.626;-8.668;2023-10-09T20:22:39;12.30;;;5.45;;
64351;SDS011;50680;52.626;-8.668;2023-10-09T20:25:06;6.80;;;5.10;;
64351;SDS011;50680;52.626;-8.668;2023-10-09T20:27:40;13.25;;;5.35;;
64351;SDS011;50680;52.626;-8.668;2023-10-09T20:30:09;14.70;;;6.03;;
64351;SDS011;50680;52.626;-8.668;2023-10-09T20:35:07;14.52;;;5.60;;
64351;SDS011;50680;52.626;-8.668;2023-10-09T20:37:39;11.82;;;6.57;;
64351;SDS011;50680;52.626;-8.668;2023-10-09T20:40:07;11.30;;;6.47;;
64351;SDS011;50680;52.626;-8.668;2023-10-09T20:42:47;8.93;;;5.53;;
64351;SDS011;50680;52.626;-8.668;2023-10-09T20:45:18;11.13;;;6.10;;
64351;SDS011;50680;52.626;-8.668;2023-10-09T20:47:45;11.65;;;5.97;;
64351;SDS011;50680;52.626;-8.668;2023-10-09T20:50:14;13.60;;;6.60;;
64351;SDS011;50680;52.626;-8.668;2023-10-09T20:52:48;10.95;;;6.75;;
64351;SDS011;50680;52.626;-8.668;2023-10-09T20:55:16;9.80;;;6.32;;
64351;SDS011;50680;52.626;-8.668;2023-10-09T20:57:48;11.60;;;5.95;;
64351;SDS011;50680;52.626;-8.668;2023-10-09T21:00:16;10.32;;;6.32;;
64351;SDS011;50680;52.626;-8.668;2023-10-09T21:02:46;11.93;;;6.78;;
64351;SDS011;50680;52.626;-8.668;2023-10-09T21:05:21;9.75;;;5.97;;
64351;SDS011;50680;52.626;-8.668;2023-10-09T21:07:53;13.40;;;7.18;;
64351;SDS011;50680;52.626;-8.668;2023-10-09T21:10:21;14.60;;;7.25;;
64351;SDS011;50680;52.626;-8.668;2023-10-09T21:12:49;14.30;;;7.18;;
64351;SDS011;50680;52.626;-8.668;2023-10-09T21:15:18;10.13;;;6.95;;
64351;SDS011;50680;52.626;-8.668;2023-10-09T21:17:47;14.82;;;6.95;;
64351;SDS011;50680;52.626;-8.668;2023-10-09T21:20:19;16.45;;;7.25;;
64351;SDS011;50680;52.626;-8.668;2023-10-09T21:22:49;15.07;;;6.70;;
64351;SDS011;50680;52.626;-8.668;2023-10-09T21:25:21;12.00;;;7.05;;
64351;SDS011;50680;52.626;-8.668;2023-10-09T21:27:49;18.23;;;6.93;;
64351;SDS011;50680;52.626;-8.668;2023-10-09T21:30:21;17.92;;;7.22;;
64351;SDS011;50680;52.626;-8.668;2023-10-09T21:32:50;13.82;;;7.28;;
64351;SDS011;50680;52.626;-8.668;2023-10-09T21:35:20;14.90;;;7.13;;
64351;SDS011;50680;52.626;-8.668;2023-10-09T21:37:49;12.90;;;7.00;;
64351;SDS011;50680;52.626;-8.668;2023-10-09T21:40:18;13.95;;;7.65;;
64351;SDS011;50680;52.626;-8.668;2023-10-09T21:42:55;15.60;;;7.35;;
64351;SDS011;50680;52.626;-8.668;2023-10-09T21:45:23;13.32;;;7.88;;
64351;SDS011;50680;52.626;-8.668;2023-10-09T21:47:52;17.48;;;7.35;;
64351;SDS011;50680;52.626;-8.668;2023-10-09T21:50:27;10.40;;;7.18;;
64351;SDS011;50680;52.626;-8.668;2023-10-09T21:52:56;11.70;;;7.18;;
64351;SDS011;50680;52.626;-8.668;2023-10-09T21:55:24;12.48;;;7.70;;
64351;SDS011;50680;52.626;-8.668;2023-10-09T21:57:54;14.25;;;7.13;;
64351;SDS011;50680;52.626;-8.668;2023-10-09T22:00:21;11.05;;;7.15;;
64351;SDS011;50680;52.626;-8.668;2023-10-09T22:03:00;14.13;;;8.20;;
64351;SDS011;50680;52.626;-8.668;2023-10-09T22:05:32;13.25;;;8.18;;
64351;SDS011;50680;52.626;-8.668;2023-10-09T22:07:59;16.67;;;8.25;;
64351;SDS011;50680;52.626;-8.668;2023-10-09T22:10:26;14.68;;;8.10;;
64351;SDS011;50680;52.626;-8.668;2023-10-09T22:12:54;13.95;;;8.30;;
64351;SDS011;50680;52.626;-8.668;2023-10-09T22:15:23;12.82;;;8.38;;
64351;SDS011;50680;52.626;-8.668;2023-10-09T22:17:49;14.73;;;8.75;;
64351;SDS011;50680;52.626;-8.668;2023-10-09T22:20:16;20.27;;;8.57;;
64351;SDS011;50680;52.626;-8.668;2023-10-09T22:22:47;17.60;;;8.00;;
64351;SDS011;50680;52.626;-8.668;2023-10-09T22:25:24;13.02;;;7.90;;
64351;SDS011;50680;52.626;-8.668;2023-10-09T22:27:52;19.95;;;8.68;;
64351;SDS011;50680;52.626;-8.668;2023-10-09T22:30:28;13.98;;;7.55;;
64351;SDS011;50680;52.626;-8.668;2023-10-09T22:33:01;13.63;;;7.90;;
64351;SDS011;50680;52.626;-8.668;2023-10-09T22:38:00;12.73;;;7.88;;
64351;SDS011;50680;52.626;-8.668;2023-10-09T22:40:35;11.70;;;7.72;;
64351;SDS011;50680;52.626;-8.668;2023-10-09T22:43:09;14.13;;;8.20;;
64351;SDS011;50680;52.626;-8.668;2023-10-09T22:45:37;12.75;;;8.55;;
64351;SDS011;50680;52.626;-8.668;2023-10-09T22:48:23;13.95;;;8.52;;
64351;SDS011;50680;52.626;-8.668;2023-10-09T22:50:54;14.25;;;8.60;;
64351;SDS011;50680;52.626;-8.668;2023-10-09T22:53:47;18.63;;;8.23;;
64351;SDS011;50680;52.626;-8.668;2023-10-09T22:56:14;12.82;;;8.15;;
64351;SDS011;50680;52.626;-8.668;2023-10-09T22:58:42;14.77;;;8.48;;
64351;SDS011;50680;52.626;-8.668;2023-10-09T23:01:19;17.27;;;8.40;;
64351;SDS011;50680;52.626;-8.668;2023-10-09T23:03:50;12.75;;;8.18;;
64351;SDS011;50680;52.626;-8.668;2023-10-09T23:06:36;13.60;;;7.40;;
64351;SDS011;50680;52.626;-8.668;2023-10-09T23:09:07;14.48;;;7.85;;
64351;SDS011;50680;52.626;-8.668;2023-10-09T23:11:54;14.75;;;7.90;;
64351;SDS011;50680;52.626;-8.668;2023-10-09T23:14:21;18.25;;;7.82;;
64351;SDS011;50680;52.626;-8.668;2023-10-09T23:16:53;21.35;;;7.60;;
64351;SDS011;50680;52.626;-8.668;2023-10-09T23:19:33;16.02;;;8.80;;
64351;SDS011;50680;52.626;-8.668;2023-10-09T23:22:03;16.30;;;8.40;;
64351;SDS011;50680;52.626;-8.668;2023-10-09T23:24:34;12.35;;;7.65;;
64351;SDS011;50680;52.626;-8.668;2023-10-09T23:27:34;14.85;;;7.25;;
64351;SDS011;50680;52.626;-8.668;2023-10-09T23:30:13;14.05;;;7.63;;
64351;SDS011;50680;52.626;-8.668;2023-10-09T23:32:50;10.35;;;7.30;;
64351;SDS011;50680;52.626;-8.668;2023-10-09T23:35:36;13.23;;;7.50;;
64351;SDS011;50680;52.626;-8.668;2023-10-09T23:38:13;12.13;;;7.35;;
64351;SDS011;50680;52.626;-8.668;2023-10-09T23:40:45;12.80;;;7.40;;
64351;SDS011;50680;52.626;-8.668;2023-10-09T23:43:16;15.73;;;7.68;;
64351;SDS011;50680;52.626;-8.668;2023-10-09T23:45:48;12.75;;;7.18;;
64351;SDS011;50680;52.626;-8.668;2023-10-09T23:48:24;12.13;;;6.68;;
64351;SDS011;50680;52.626;-8.668;2023-10-09T23:50:55;12.18;;;7.60;;
64351;SDS011;50680;52.626;-8.668;2023-10-09T23:53:30;11.38;;;6.43;;
64351;SDS011;50680;52.626;-8.668;2023-10-09T23:56:03;10.98;;;6.30;;
64351;SDS011;50680;52.626;-8.668;2023-10-09T23:58:38;16.38;;;6.88;;
